Nur — E5U2974 — position and weather

sailwx.info

Track history (hours):
 
Tides and Currents Weather Stations Pressure Air Temp Water Temp Dewpoint Dewpoint Depression Visibility Wind Speed Wind Dir Waves Ship Positions

Nur

Last reported at 2017-Sep-20 04:16 UTC. Time now 2017-Sep-22 08:30 UTC.
Position N 45°10' E 029°44'.

Length 81 m; draft 5.4 m.

Type: Cargo ship. MMSI: 518100029.

Date/timePositionNaut miles runAvg speedWind from/ knotsBaromVisibWave heightAir tempDewpointWater temp
2017-Sep-20 04:16N 45°10' E 029°44'3 0.1
2017-Sep-18 21:27N 45°09' E 029°48'5 5.0
2017-Sep-18 20:32N 45°07' E 029°54'0 8.3
2017-Sep-18 20:30N 45°07' E 029°54'4 8.2
2017-Sep-18 20:00N 45°05' E 029°59'6 8.1
2017-Sep-18 19:15N 45°03' E 030°07'2 8.1
2017-Sep-18 19:00N 45°03' E 030°10'4 8.1
2017-Sep-18 18:30N 45°01' E 030°16'5 8.3
2017-Sep-18 17:53N 44°60' E 030°22'3 8.4
2017-Sep-18 17:29N 44°58' E 030°27'4 8.5
2017-Sep-18 17:00N 44°57' E 030°33'4 8.4
2017-Sep-18 16:28N 44°56' E 030°39'5 8.6
2017-Sep-18 15:51N 44°54' E 030°46'3 8.6
2017-Sep-18 15:29N 44°53' E 030°50'4 8.7
2017-Sep-18 15:00N 44°52' E 030°56'5 8.6
2017-Sep-18 14:25N 44°51' E 031°02'4 8.6
2017-Sep-18 13:58N 44°50' E 031°08'4 8.5
2017-Sep-18 13:30N 44°49' E 031°13'4 8.4
2017-Sep-18 12:59N 44°47' E 031°19'19 8.5
2017-Sep-18 10:46N 44°42' E 031°44'37 8.6
2017-Sep-18 06:26N 44°31' E 032°34'6 8.3
2017-Sep-18 05:41N 44°29' E 032°43'2 8.5
2017-Sep-18 05:30N 44°28' E 032°45'4 8.7
2017-Sep-18 05:00N 44°27' E 032°51'4 8.5
2017-Sep-18 04:30N 44°26' E 032°56'4 8.4
2017-Sep-18 04:00N 44°25' E 033°02'4 8.3
2017-Sep-18 03:30N 44°23' E 033°07'9 8.5
2017-Sep-18 02:26N 44°21' E 033°20'5 8.8
2017-Sep-18 01:54N 44°19' E 033°26'22 8.9
2017-Sep-17 23:29N 44°17' E 033°56'6 9.2
2017-Sep-17 22:51N 44°17' E 034°04'3 9.3
2017-Sep-17 22:30N 44°17' E 034°08'5 9.2
2017-Sep-17 22:00N 44°17' E 034°15'6 8.9
2017-Sep-17 21:20N 44°17' E 034°23'138 8.5
2017-Sep-17 05:05N 44°30' E 037°35'1 8.3
2017-Sep-17 04:57N 44°30' E 037°37'4 8.1
2017-Sep-17 04:31N 44°32' E 037°41'4 7.9
2017-Sep-17 04:00N 44°35' E 037°45'4 8.3
2017-Sep-17 03:31N 44°38' E 037°49'4 7.6
2017-Sep-17 03:01N 44°42' E 037°49'3 5.3
2017-Sep-17 02:30N 44°44' E 037°47'0 0.2
2017-Sep-17 02:00N 44°44' E 037°47'0 0.0
2017-Sep-17 01:30N 44°44' E 037°47'0 0.0
2017-Sep-17 01:00N 44°44' E 037°47'0 0.0
2017-Sep-17 00:30N 44°44' E 037°47'0 0.0
2017-Sep-17 00:00N 44°44' E 037°47'0 0.0
2017-Sep-16 23:30N 44°44' E 037°47'0 0.0
2017-Sep-16 23:00N 44°44' E 037°47'0 0.0
2017-Sep-16 22:30N 44°44' E 037°47'0 0.0
2017-Sep-16 22:00N 44°44' E 037°47'0 0.0
2017-Sep-16 21:30N 44°44' E 037°47'0 0.0
2017-Sep-16 21:00N 44°44' E 037°47'0 0.0
2017-Sep-16 20:30N 44°44' E 037°47'0 0.0
2017-Sep-16 19:30N 44°44' E 037°47'0 0.0
2017-Sep-16 18:54N 44°44' E 037°47'0 0.0
2017-Sep-16 18:30N 44°44' E 037°47'0 0.0
2017-Sep-16 18:00N 44°44' E 037°47'0 0.0
2017-Sep-16 17:30N 44°44' E 037°47'0 0.0
2017-Sep-16 16:57N 44°44' E 037°47'0 0.0
2017-Sep-16 16:30N 44°44' E 037°47'0 0.0
2017-Sep-16 15:57N 44°44' E 037°47'0 0.0
2017-Sep-16 15:30N 44°44' E 037°47'0 0.0
2017-Sep-16 15:00N 44°44' E 037°47'0 0.0
2017-Sep-16 14:30N 44°44' E 037°47'0 0.0
2017-Sep-16 14:00N 44°44' E 037°47'0 0.0
2017-Sep-16 13:30N 44°44' E 037°47'0 0.0
2017-Sep-16 13:00N 44°44' E 037°47'0 0.0
2017-Sep-16 12:30N 44°44' E 037°47'0 0.0
2017-Sep-16 12:00N 44°44' E 037°47'0 0.0
2017-Sep-16 11:30N 44°44' E 037°47'0 0.0
2017-Sep-16 11:00N 44°44' E 037°47'0 0.0
2017-Sep-16 10:30N 44°44' E 037°47'0 0.0
2017-Sep-16 10:00N 44°44' E 037°47'0 0.0
2017-Sep-16 07:54N 44°44' E 037°47'0 0.0
2017-Sep-16 07:30N 44°44' E 037°47'0 0.0
2017-Sep-16 07:00N 44°44' E 037°47'0 0.0
2017-Sep-16 06:27N 44°44' E 037°47'0 0.0
2017-Sep-16 06:00N 44°44' E 037°47'0 0.0
2017-Sep-16 05:30N 44°44' E 037°47'0 0.0
2017-Sep-16 05:00N 44°44' E 037°47'0 0.0
2017-Sep-16 04:30N 44°44' E 037°47'0 0.0
2017-Sep-16 03:51N 44°44' E 037°47'0 0.0
2017-Sep-16 03:30N 44°44' E 037°47'0 0.0
2017-Sep-16 03:00N 44°44' E 037°47'0 0.0
2017-Sep-16 02:30N 44°44' E 037°47'0 0.0
2017-Sep-16 02:00N 44°44' E 037°47'0 0.0
2017-Sep-16 01:30N 44°44' E 037°47'0 0.0
2017-Sep-16 01:00N 44°44' E 037°47'0 0.0
2017-Sep-16 00:27N 44°44' E 037°47'0 0.0
2017-Sep-16 00:00N 44°44' E 037°47'0 0.0
2017-Sep-15 23:30N 44°44' E 037°47'0 0.0
2017-Sep-15 23:00N 44°44' E 037°47'0 0.0
2017-Sep-15 22:30N 44°44' E 037°47'0 0.0
2017-Sep-15 22:00N 44°44' E 037°47'0 0.0
2017-Sep-15 21:18N 44°44' E 037°47'0 0.0
2017-Sep-15 21:00N 44°44' E 037°47'0 0.0
2017-Sep-15 20:27N 44°44' E 037°47'0 0.0
2017-Sep-15 19:57N 44°44' E 037°47'0 0.0
2017-Sep-15 19:30N 44°44' E 037°47'0 0.0
2017-Sep-15 18:57N 44°44' E 037°47'0 0.0
2017-Sep-15 18:30N 44°44' E 037°47'0 0.0
2017-Sep-15 17:42N 44°44' E 037°47'0 0.0
2017-Sep-15 17:30N 44°44' E 037°47'0 0.0
2017-Sep-15 17:00N 44°44' E 037°47'0 0.0
2017-Sep-15 16:30N 44°44' E 037°47'0 0.0
2017-Sep-15 16:00N 44°44' E 037°47'0 0.0
2017-Sep-15 15:06N 44°44' E 037°47'0 0.1
2017-Sep-15 15:00N 44°44' E 037°47'0 0.0
2017-Sep-15 14:30N 44°44' E 037°47'0 0.0
2017-Sep-15 14:00N 44°44' E 037°47'0 0.0
2017-Sep-15 13:30N 44°44' E 037°47'0 0.0
2017-Sep-15 13:00N 44°44' E 037°47'0 0.0
2017-Sep-15 12:30N 44°44' E 037°47'0 0.0
2017-Sep-15 12:00N 44°44' E 037°47'0 0.2
2017-Sep-15 11:30N 44°44' E 037°47'3 6.8
2017-Sep-15 11:00N 44°41' E 037°50'3 6.9
2017-Sep-15 10:30N 44°38' E 037°52'2 2.9
2017-Sep-15 09:58N 44°39' E 037°54'0 0.0
2017-Sep-15 09:28N 44°39' E 037°54'0 0.0
2017-Sep-15 08:58N 44°39' E 037°54'0 0.0
2017-Sep-15 08:28N 44°39' E 037°54'0 0.0
2017-Sep-15 07:58N 44°39' E 037°54'0 0.0
2017-Sep-15 07:28N 44°39' E 037°54'0 0.0
2017-Sep-15 06:58N 44°39' E 037°54'0 0.0
2017-Sep-15 06:28N 44°39' E 037°54'0 0.0
2017-Sep-15 05:55N 44°39' E 037°54'0 0.1
2017-Sep-15 05:28N 44°39' E 037°54'0 0.1
2017-Sep-15 04:58N 44°39' E 037°54'0 0.0
2017-Sep-15 04:28N 44°39' E 037°54'0 0.0
2017-Sep-15 03:58N 44°39' E 037°54'0 0.0
2017-Sep-15 03:28N 44°39' E 037°54'0 0.0
2017-Sep-15 02:58N 44°39' E 037°54'0 0.0
2017-Sep-15 02:28N 44°39' E 037°54'0 0.0
2017-Sep-15 01:58N 44°39' E 037°54'0 0.0
2017-Sep-15 01:25N 44°39' E 037°54'0 0.0
2017-Sep-15 00:58N 44°39' E 037°54'0 0.0
2017-Sep-15 00:28N 44°39' E 037°54'0 0.1
2017-Sep-14 23:52N 44°39' E 037°54'1 2.3
2017-Sep-14 23:30N 44°38' E 037°53'3 5.3
2017-Sep-14 23:00N 44°40' E 037°50'4 8.0
2017-Sep-14 22:30N 44°44' E 037°48'0 0.6
2017-Sep-14 21:58N 44°44' E 037°47'0 0.0
2017-Sep-14 21:28N 44°44' E 037°47'0 0.0
2017-Sep-14 20:58N 44°44' E 037°47'0 0.0
2017-Sep-14 20:28N 44°44' E 037°47'0 0.0
2017-Sep-14 19:58N 44°44' E 037°47'0 0.0
2017-Sep-14 19:28N 44°44' E 037°47'0 0.0
2017-Sep-14 18:58N 44°44' E 037°47'0 0.0
2017-Sep-14 18:25N 44°44' E 037°47'0 0.0
2017-Sep-14 17:58N 44°44' E 037°47'0 0.0
2017-Sep-14 17:22N 44°44' E 037°47'0 0.0
2017-Sep-14 16:58N 44°44' E 037°47'0 0.0
2017-Sep-14 16:28N 44°44' E 037°47'0 0.0
2017-Sep-14 15:58N 44°44' E 037°47'0 0.0
2017-Sep-14 15:28N 44°44' E 037°47'0 0.0
2017-Sep-14 14:58N 44°44' E 037°47'0 0.0
2017-Sep-14 14:28N 44°44' E 037°47'0 0.0
2017-Sep-14 13:58N 44°44' E 037°47'0 0.0
2017-Sep-14 13:28N 44°44' E 037°47'0 0.0
2017-Sep-14 12:58N 44°44' E 037°47'0 0.0
2017-Sep-14 12:10N 44°44' E 037°47'0 0.0
2017-Sep-14 11:58N 44°44' E 037°47'0 0.0
2017-Sep-14 11:28N 44°44' E 037°47'0 0.0
2017-Sep-14 10:49N 44°44' E 037°47'0 0.0
2017-Sep-14 10:28N 44°44' E 037°47'0 0.0
2017-Sep-14 09:58N 44°44' E 037°47'0 0.0
2017-Sep-14 09:28N 44°44' E 037°47'0 0.0
2017-Sep-14 08:58N 44°44' E 037°47'0 0.0
2017-Sep-14 08:28N 44°44' E 037°47'0 0.0
2017-Sep-14 07:55N 44°44' E 037°47'0 0.0
2017-Sep-14 07:28N 44°44' E 037°47'0 0.0
2017-Sep-14 06:52N 44°44' E 037°47'0 0.0
2017-Sep-14 06:28N 44°44' E 037°47'0 0.0
2017-Sep-14 05:58N 44°44' E 037°47'0 0.0
2017-Sep-14 05:28N 44°44' E 037°47'0 0.0
2017-Sep-14 04:55N 44°44' E 037°47'0 0.0
2017-Sep-14 04:28N 44°44' E 037°47'0 0.0
2017-Sep-14 03:58N 44°44' E 037°47'0 0.0
2017-Sep-14 03:22N 44°44' E 037°47'0 0.0
2017-Sep-14 02:58N 44°44' E 037°47'0 0.0
2017-Sep-14 02:28N 44°44' E 037°47'0 0.0
2017-Sep-14 01:58N 44°44' E 037°47'0 0.0
2017-Sep-14 01:28N 44°44' E 037°47'0 0.0
2017-Sep-14 00:58N 44°44' E 037°47'0 0.0
2017-Sep-14 00:30N 44°44' E 037°47'0 0.0
2017-Sep-14 00:00N 44°44' E 037°47'0 0.0
2017-Sep-13 23:30N 44°44' E 037°47'0 0.3
2017-Sep-13 23:00N 44°44' E 037°48'2 4.6
2017-Sep-13 22:30N 44°42' E 037°49'4 8.1
2017-Sep-13 22:00N 44°38' E 037°52'1 1.9
2017-Sep-13 21:30N 44°37' E 037°52'1 2.4
2017-Sep-13 21:01N 44°38' E 037°53'1 1.2
2017-Sep-13 20:29N 44°39' E 037°54'0 0.0
2017-Sep-13 19:59N 44°39' E 037°54'0 0.0
2017-Sep-13 19:29N 44°39' E 037°54'0 0.0
2017-Sep-13 18:53N 44°39' E 037°54'0 0.0
2017-Sep-13 18:29N 44°39' E 037°54'0 0.0
2017-Sep-13 17:59N 44°39' E 037°54'0 0.0
2017-Sep-13 17:29N 44°39' E 037°54'0 0.1
2017-Sep-13 16:59N 44°39' E 037°54'0 0.0
2017-Sep-13 16:29N 44°39' E 037°54'0 0.1
2017-Sep-13 15:59N 44°39' E 037°54'2 4.0
2017-Sep-13 15:30N 44°37' E 037°52'4 7.9
2017-Sep-13 15:00N 44°33' E 037°52'0 0.6
2017-Sep-13 14:30N 44°33' E 037°52'2 4.6
2017-Sep-13 14:00N 44°35' E 037°51'4 7.9
2017-Sep-13 13:30N 44°33' E 037°47'5 9.6
2017-Sep-13 13:00N 44°30' E 037°41'4 8.9
2017-Sep-13 12:30N 44°27' E 037°36'4 8.4
2017-Sep-13 12:00N 44°26' E 037°31'4 8.3
2017-Sep-13 11:29N 44°24' E 037°25'29 8.8
2017-Sep-13 08:09N 44°18' E 036°45'1 9.9
2017-Sep-13 08:00N 44°17' E 036°43'5 9.9
2017-Sep-13 07:29N 44°17' E 036°36'5 9.7
2017-Sep-13 07:00N 44°17' E 036°29'5 9.7
2017-Sep-13 06:30N 44°17' E 036°22'56 9.0
2017-Sep-13 00:16N 44°16' E 035°04'118 7.1
2017-Sep-12 07:31N 44°21' E 032°19'0 5.0
2017-Sep-12 07:30N 44°21' E 032°18'2 4.4
2017-Sep-12 07:00N 44°21' E 032°15'2 4.9
2017-Sep-12 06:30N 44°21' E 032°12'9 4.5
2017-Sep-12 04:36N 44°25' E 032°01'3 4.6
2017-Sep-12 04:01N 44°28' E 031°60'0 5.0
2017-Sep-12 04:00N 44°28' E 031°60'2 4.9
2017-Sep-12 03:30N 44°29' E 031°57'3 5.3
2017-Sep-12 03:00N 44°31' E 031°54'3 5.2
2017-Sep-12 02:26N 44°33' E 031°51'2 5.5
2017-Sep-12 02:00N 44°35' E 031°49'3 5.7
2017-Sep-12 01:31N 44°37' E 031°46'3 5.9
2017-Sep-12 01:00N 44°39' E 031°44'4 6.6
2017-Sep-12 00:22N 44°41' E 031°39'3 7.3
2017-Sep-11 23:59N 44°43' E 031°36'4 7.6
2017-Sep-11 23:30N 44°45' E 031°31'4 8.1
2017-Sep-11 23:01N 44°46' E 031°26'4 8.3
2017-Sep-11 22:31N 44°48' E 031°21'4 8.2
2017-Sep-11 22:00N 44°49' E 031°15'4 8.3
2017-Sep-11 21:30N 44°50' E 031°09'4 8.2
2017-Sep-11 21:00N 44°52' E 031°04'4 8.3
2017-Sep-11 20:30N 44°53' E 030°59'4 8.7
2017-Sep-11 20:00N 44°54' E 030°53'4 9.0
2017-Sep-11 19:30N 44°56' E 030°47'5 9.1
2017-Sep-11 19:00N 44°57' E 030°41'4 8.9
2017-Sep-11 18:30N 44°58' E 030°34'4 8.8
2017-Sep-11 18:00N 44°60' E 030°29'6 8.7
2017-Sep-11 17:21N 45°01' E 030°21'3 8.9
2017-Sep-11 17:00N 45°02' E 030°17'5 8.9
2017-Sep-11 16:30N 45°03' E 030°10'5 9.2
2017-Sep-11 15:59N 45°05' E 030°04'5 9.4
2017-Sep-11 15:30N 45°06' E 029°58'8 8.6
2017-Sep-11 14:31N 45°09' E 029°47'0 7.6
2017-Sep-11 14:28N 45°09' E 029°46'4 8.7
2017-Sep-11 14:01N 45°10' E 029°41'4 8.9
2017-Sep-11 13:30N 45°10' E 029°34'4 8.2
2017-Sep-11 13:00N 45°10' E 029°28'5 9.3
2017-Sep-11 12:29N 45°11' E 029°22'5 9.3
2017-Sep-11 11:55N 45°11' E 029°14'4 9.1
2017-Sep-11 11:30N 45°11' E 029°09'  
Track history (hours):
 
Tides and Currents Weather Stations Pressure Air Temp Water Temp Dewpoint Dewpoint Depression Visibility Wind Speed Wind Dir Waves Ship Positions

Nur

Last reported at 2017-Sep-20 04:16 UTC. Time now 2017-Sep-22 08:30 UTC.
Position N 45°10' E 029°44'.

Length 81 m; draft 5.4 m.

Type: Cargo ship. MMSI: 518100029.

Date/timePositionNaut miles runAvg speedWind from/ knotsBaromVisibWave heightAir tempDewpointWater temp
2017-Sep-20 04:16N 45°10' E 029°44'3 0.1
2017-Sep-18 21:27N 45°09' E 029°48'5 5.0
2017-Sep-18 20:32N 45°07' E 029°54'0 8.3
2017-Sep-18 20:30N 45°07' E 029°54'4 8.2
2017-Sep-18 20:00N 45°05' E 029°59'6 8.1
2017-Sep-18 19:15N 45°03' E 030°07'2 8.1
2017-Sep-18 19:00N 45°03' E 030°10'4 8.1
2017-Sep-18 18:30N 45°01' E 030°16'5 8.3
2017-Sep-18 17:53N 44°60' E 030°22'3 8.4
2017-Sep-18 17:29N 44°58' E 030°27'4 8.5
2017-Sep-18 17:00N 44°57' E 030°33'4 8.4
2017-Sep-18 16:28N 44°56' E 030°39'5 8.6
2017-Sep-18 15:51N 44°54' E 030°46'3 8.6
2017-Sep-18 15:29N 44°53' E 030°50'4 8.7
2017-Sep-18 15:00N 44°52' E 030°56'5 8.6
2017-Sep-18 14:25N 44°51' E 031°02'4 8.6
2017-Sep-18 13:58N 44°50' E 031°08'4 8.5
2017-Sep-18 13:30N 44°49' E 031°13'4 8.4
2017-Sep-18 12:59N 44°47' E 031°19'19 8.5
2017-Sep-18 10:46N 44°42' E 031°44'37 8.6
2017-Sep-18 06:26N 44°31' E 032°34'6 8.3
2017-Sep-18 05:41N 44°29' E 032°43'2 8.5
2017-Sep-18 05:30N 44°28' E 032°45'4 8.7
2017-Sep-18 05:00N 44°27' E 032°51'4 8.5
2017-Sep-18 04:30N 44°26' E 032°56'4 8.4
2017-Sep-18 04:00N 44°25' E 033°02'4 8.3
2017-Sep-18 03:30N 44°23' E 033°07'9 8.5
2017-Sep-18 02:26N 44°21' E 033°20'5 8.8
2017-Sep-18 01:54N 44°19' E 033°26'22 8.9
2017-Sep-17 23:29N 44°17' E 033°56'6 9.2
2017-Sep-17 22:51N 44°17' E 034°04'3 9.3
2017-Sep-17 22:30N 44°17' E 034°08'5 9.2
2017-Sep-17 22:00N 44°17' E 034°15'6 8.9
2017-Sep-17 21:20N 44°17' E 034°23'138 8.5
2017-Sep-17 05:05N 44°30' E 037°35'1 8.3
2017-Sep-17 04:57N 44°30' E 037°37'4 8.1
2017-Sep-17 04:31N 44°32' E 037°41'4 7.9
2017-Sep-17 04:00N 44°35' E 037°45'4 8.3
2017-Sep-17 03:31N 44°38' E 037°49'4 7.6
2017-Sep-17 03:01N 44°42' E 037°49'3 5.3
2017-Sep-17 02:30N 44°44' E 037°47'0 0.2
2017-Sep-17 02:00N 44°44' E 037°47'0 0.0
2017-Sep-17 01:30N 44°44' E 037°47'0 0.0
2017-Sep-17 01:00N 44°44' E 037°47'0 0.0
2017-Sep-17 00:30N 44°44' E 037°47'0 0.0
2017-Sep-17 00:00N 44°44' E 037°47'0 0.0
2017-Sep-16 23:30N 44°44' E 037°47'0 0.0
2017-Sep-16 23:00N 44°44' E 037°47'0 0.0
2017-Sep-16 22:30N 44°44' E 037°47'0 0.0
2017-Sep-16 22:00N 44°44' E 037°47'0 0.0
2017-Sep-16 21:30N 44°44' E 037°47'0 0.0
2017-Sep-16 21:00N 44°44' E 037°47'0 0.0
2017-Sep-16 20:30N 44°44' E 037°47'0 0.0
2017-Sep-16 19:30N 44°44' E 037°47'0 0.0
2017-Sep-16 18:54N 44°44' E 037°47'0 0.0
2017-Sep-16 18:30N 44°44' E 037°47'0 0.0
2017-Sep-16 18:00N 44°44' E 037°47'0 0.0
2017-Sep-16 17:30N 44°44' E 037°47'0 0.0
2017-Sep-16 16:57N 44°44' E 037°47'0 0.0
2017-Sep-16 16:30N 44°44' E 037°47'0 0.0
2017-Sep-16 15:57N 44°44' E 037°47'0 0.0
2017-Sep-16 15:30N 44°44' E 037°47'0 0.0
2017-Sep-16 15:00N 44°44' E 037°47'0 0.0
2017-Sep-16 14:30N 44°44' E 037°47'0 0.0
2017-Sep-16 14:00N 44°44' E 037°47'0 0.0
2017-Sep-16 13:30N 44°44' E 037°47'0 0.0
2017-Sep-16 13:00N 44°44' E 037°47'0 0.0
2017-Sep-16 12:30N 44°44' E 037°47'0 0.0
2017-Sep-16 12:00N 44°44' E 037°47'0 0.0
2017-Sep-16 11:30N 44°44' E 037°47'0 0.0
2017-Sep-16 11:00N 44°44' E 037°47'0 0.0
2017-Sep-16 10:30N 44°44' E 037°47'0 0.0
2017-Sep-16 10:00N 44°44' E 037°47'0 0.0
2017-Sep-16 07:54N 44°44' E 037°47'0 0.0
2017-Sep-16 07:30N 44°44' E 037°47'0 0.0
2017-Sep-16 07:00N 44°44' E 037°47'0 0.0
2017-Sep-16 06:27N 44°44' E 037°47'0 0.0
2017-Sep-16 06:00N 44°44' E 037°47'0 0.0
2017-Sep-16 05:30N 44°44' E 037°47'0 0.0
2017-Sep-16 05:00N 44°44' E 037°47'0 0.0
2017-Sep-16 04:30N 44°44' E 037°47'0 0.0
2017-Sep-16 03:51N 44°44' E 037°47'0 0.0
2017-Sep-16 03:30N 44°44' E 037°47'0 0.0
2017-Sep-16 03:00N 44°44' E 037°47'0 0.0
2017-Sep-16 02:30N 44°44' E 037°47'0 0.0
2017-Sep-16 02:00N 44°44' E 037°47'0 0.0
2017-Sep-16 01:30N 44°44' E 037°47'0 0.0
2017-Sep-16 01:00N 44°44' E 037°47'0 0.0
2017-Sep-16 00:27N 44°44' E 037°47'0 0.0
2017-Sep-16 00:00N 44°44' E 037°47'0 0.0
2017-Sep-15 23:30N 44°44' E 037°47'0 0.0
2017-Sep-15 23:00N 44°44' E 037°47'0 0.0
2017-Sep-15 22:30N 44°44' E 037°47'0 0.0
2017-Sep-15 22:00N 44°44' E 037°47'0 0.0
2017-Sep-15 21:18N 44°44' E 037°47'0 0.0
2017-Sep-15 21:00N 44°44' E 037°47'0 0.0
2017-Sep-15 20:27N 44°44' E 037°47'0 0.0
2017-Sep-15 19:57N 44°44' E 037°47'0 0.0
2017-Sep-15 19:30N 44°44' E 037°47'0 0.0
2017-Sep-15 18:57N 44°44' E 037°47'0 0.0
2017-Sep-15 18:30N 44°44' E 037°47'0 0.0
2017-Sep-15 17:42N 44°44' E 037°47'0 0.0
2017-Sep-15 17:30N 44°44' E 037°47'0 0.0
2017-Sep-15 17:00N 44°44' E 037°47'0 0.0
2017-Sep-15 16:30N 44°44' E 037°47'0 0.0
2017-Sep-15 16:00N 44°44' E 037°47'0 0.0
2017-Sep-15 15:06N 44°44' E 037°47'0 0.1
2017-Sep-15 15:00N 44°44' E 037°47'0 0.0
2017-Sep-15 14:30N 44°44' E 037°47'0 0.0
2017-Sep-15 14:00N 44°44' E 037°47'0 0.0
2017-Sep-15 13:30N 44°44' E 037°47'0 0.0
2017-Sep-15 13:00N 44°44' E 037°47'0 0.0
2017-Sep-15 12:30N 44°44' E 037°47'0 0.0
2017-Sep-15 12:00N 44°44' E 037°47'0 0.2
2017-Sep-15 11:30N 44°44' E 037°47'3 6.8
2017-Sep-15 11:00N 44°41' E 037°50'3 6.9
2017-Sep-15 10:30N 44°38' E 037°52'2 2.9
2017-Sep-15 09:58N 44°39' E 037°54'0 0.0
2017-Sep-15 09:28N 44°39' E 037°54'0 0.0
2017-Sep-15 08:58N 44°39' E 037°54'0 0.0
2017-Sep-15 08:28N 44°39' E 037°54'0 0.0
2017-Sep-15 07:58N 44°39' E 037°54'0 0.0
2017-Sep-15 07:28N 44°39' E 037°54'0 0.0
2017-Sep-15 06:58N 44°39' E 037°54'0 0.0
2017-Sep-15 06:28N 44°39' E 037°54'0 0.0
2017-Sep-15 05:55N 44°39' E 037°54'0 0.1
2017-Sep-15 05:28N 44°39' E 037°54'0 0.1
2017-Sep-15 04:58N 44°39' E 037°54'0 0.0
2017-Sep-15 04:28N 44°39' E 037°54'0 0.0
2017-Sep-15 03:58N 44°39' E 037°54'0 0.0
2017-Sep-15 03:28N 44°39' E 037°54'0 0.0
2017-Sep-15 02:58N 44°39' E 037°54'0 0.0
2017-Sep-15 02:28N 44°39' E 037°54'0 0.0
2017-Sep-15 01:58N 44°39' E 037°54'0 0.0
2017-Sep-15 01:25N 44°39' E 037°54'0 0.0
2017-Sep-15 00:58N 44°39' E 037°54'0 0.0
2017-Sep-15 00:28N 44°39' E 037°54'0 0.1
2017-Sep-14 23:52N 44°39' E 037°54'1 2.3
2017-Sep-14 23:30N 44°38' E 037°53'3 5.3
2017-Sep-14 23:00N 44°40' E 037°50'4 8.0
2017-Sep-14 22:30N 44°44' E 037°48'0 0.6
2017-Sep-14 21:58N 44°44' E 037°47'0 0.0
2017-Sep-14 21:28N 44°44' E 037°47'0 0.0
2017-Sep-14 20:58N 44°44' E 037°47'0 0.0
2017-Sep-14 20:28N 44°44' E 037°47'0 0.0
2017-Sep-14 19:58N 44°44' E 037°47'0 0.0
2017-Sep-14 19:28N 44°44' E 037°47'0 0.0
2017-Sep-14 18:58N 44°44' E 037°47'0 0.0
2017-Sep-14 18:25N 44°44' E 037°47'0 0.0
2017-Sep-14 17:58N 44°44' E 037°47'0 0.0
2017-Sep-14 17:22N 44°44' E 037°47'0 0.0
2017-Sep-14 16:58N 44°44' E 037°47'0 0.0
2017-Sep-14 16:28N 44°44' E 037°47'0 0.0
2017-Sep-14 15:58N 44°44' E 037°47'0 0.0
2017-Sep-14 15:28N 44°44' E 037°47'0 0.0
2017-Sep-14 14:58N 44°44' E 037°47'0 0.0
2017-Sep-14 14:28N 44°44' E 037°47'0 0.0
2017-Sep-14 13:58N 44°44' E 037°47'0 0.0
2017-Sep-14 13:28N 44°44' E 037°47'0 0.0
2017-Sep-14 12:58N 44°44' E 037°47'0 0.0
2017-Sep-14 12:10N 44°44' E 037°47'0 0.0
2017-Sep-14 11:58N 44°44' E 037°47'0 0.0
2017-Sep-14 11:28N 44°44' E 037°47'0 0.0
2017-Sep-14 10:49N 44°44' E 037°47'0 0.0
2017-Sep-14 10:28N 44°44' E 037°47'0 0.0
2017-Sep-14 09:58N 44°44' E 037°47'0 0.0
2017-Sep-14 09:28N 44°44' E 037°47'0 0.0
2017-Sep-14 08:58N 44°44' E 037°47'0 0.0
2017-Sep-14 08:28N 44°44' E 037°47'0 0.0
2017-Sep-14 07:55N 44°44' E 037°47'0 0.0
2017-Sep-14 07:28N 44°44' E 037°47'0 0.0
2017-Sep-14 06:52N 44°44' E 037°47'0 0.0
2017-Sep-14 06:28N 44°44' E 037°47'0 0.0
2017-Sep-14 05:58N 44°44' E 037°47'0 0.0
2017-Sep-14 05:28N 44°44' E 037°47'0 0.0
2017-Sep-14 04:55N 44°44' E 037°47'0 0.0
2017-Sep-14 04:28N 44°44' E 037°47'0 0.0
2017-Sep-14 03:58N 44°44' E 037°47'0 0.0
2017-Sep-14 03:22N 44°44' E 037°47'0 0.0
2017-Sep-14 02:58N 44°44' E 037°47'0 0.0
2017-Sep-14 02:28N 44°44' E 037°47'0 0.0
2017-Sep-14 01:58N 44°44' E 037°47'0 0.0
2017-Sep-14 01:28N 44°44' E 037°47'0 0.0
2017-Sep-14 00:58N 44°44' E 037°47'0 0.0
2017-Sep-14 00:30N 44°44' E 037°47'0 0.0
2017-Sep-14 00:00N 44°44' E 037°47'0 0.0
2017-Sep-13 23:30N 44°44' E 037°47'0 0.3
2017-Sep-13 23:00N 44°44' E 037°48'2 4.6
2017-Sep-13 22:30N 44°42' E 037°49'4 8.1
2017-Sep-13 22:00N 44°38' E 037°52'1 1.9
2017-Sep-13 21:30N 44°37' E 037°52'1 2.4
2017-Sep-13 21:01N 44°38' E 037°53'1 1.2
2017-Sep-13 20:29N 44°39' E 037°54'0 0.0
2017-Sep-13 19:59N 44°39' E 037°54'0 0.0
2017-Sep-13 19:29N 44°39' E 037°54'0 0.0
2017-Sep-13 18:53N 44°39' E 037°54'0 0.0
2017-Sep-13 18:29N 44°39' E 037°54'0 0.0
2017-Sep-13 17:59N 44°39' E 037°54'0 0.0
2017-Sep-13 17:29N 44°39' E 037°54'0 0.1
2017-Sep-13 16:59N 44°39' E 037°54'0 0.0
2017-Sep-13 16:29N 44°39' E 037°54'0 0.1
2017-Sep-13 15:59N 44°39' E 037°54'2 4.0
2017-Sep-13 15:30N 44°37' E 037°52'4 7.9
2017-Sep-13 15:00N 44°33' E 037°52'0 0.6
2017-Sep-13 14:30N 44°33' E 037°52'2 4.6
2017-Sep-13 14:00N 44°35' E 037°51'4 7.9
2017-Sep-13 13:30N 44°33' E 037°47'5 9.6
2017-Sep-13 13:00N 44°30' E 037°41'4 8.9
2017-Sep-13 12:30N 44°27' E 037°36'4 8.4
2017-Sep-13 12:00N 44°26' E 037°31'4 8.3
2017-Sep-13 11:29N 44°24' E 037°25'29 8.8
2017-Sep-13 08:09N 44°18' E 036°45'1 9.9
2017-Sep-13 08:00N 44°17' E 036°43'5 9.9
2017-Sep-13 07:29N 44°17' E 036°36'5 9.7
2017-Sep-13 07:00N 44°17' E 036°29'5 9.7
2017-Sep-13 06:30N 44°17' E 036°22'56 9.0
2017-Sep-13 00:16N 44°16' E 035°04'118 7.1
2017-Sep-12 07:31N 44°21' E 032°19'0 5.0
2017-Sep-12 07:30N 44°21' E 032°18'2 4.4
2017-Sep-12 07:00N 44°21' E 032°15'2 4.9
2017-Sep-12 06:30N 44°21' E 032°12'9 4.5
2017-Sep-12 04:36N 44°25' E 032°01'3 4.6
2017-Sep-12 04:01N 44°28' E 031°60'0 5.0
2017-Sep-12 04:00N 44°28' E 031°60'2 4.9
2017-Sep-12 03:30N 44°29' E 031°57'3 5.3
2017-Sep-12 03:00N 44°31' E 031°54'3 5.2
2017-Sep-12 02:26N 44°33' E 031°51'2 5.5
2017-Sep-12 02:00N 44°35' E 031°49'3 5.7
2017-Sep-12 01:31N 44°37' E 031°46'3 5.9
2017-Sep-12 01:00N 44°39' E 031°44'4 6.6
2017-Sep-12 00:22N 44°41' E 031°39'3 7.3
2017-Sep-11 23:59N 44°43' E 031°36'4 7.6
2017-Sep-11 23:30N 44°45' E 031°31'4 8.1
2017-Sep-11 23:01N 44°46' E 031°26'4 8.3
2017-Sep-11 22:31N 44°48' E 031°21'4 8.2
2017-Sep-11 22:00N 44°49' E 031°15'4 8.3
2017-Sep-11 21:30N 44°50' E 031°09'4 8.2
2017-Sep-11 21:00N 44°52' E 031°04'4 8.3
2017-Sep-11 20:30N 44°53' E 030°59'4 8.7
2017-Sep-11 20:00N 44°54' E 030°53'4 9.0
2017-Sep-11 19:30N 44°56' E 030°47'5 9.1
2017-Sep-11 19:00N 44°57' E 030°41'4 8.9
2017-Sep-11 18:30N 44°58' E 030°34'4 8.8
2017-Sep-11 18:00N 44°60' E 030°29'6 8.7
2017-Sep-11 17:21N 45°01' E 030°21'3 8.9
2017-Sep-11 17:00N 45°02' E 030°17'5 8.9
2017-Sep-11 16:30N 45°03' E 030°10'5 9.2
2017-Sep-11 15:59N 45°05' E 030°04'5 9.4
2017-Sep-11 15:30N 45°06' E 029°58'8 8.6
2017-Sep-11 14:31N 45°09' E 029°47'0 7.6
2017-Sep-11 14:28N 45°09' E 029°46'4 8.7
2017-Sep-11 14:01N 45°10' E 029°41'4 8.9
2017-Sep-11 13:30N 45°10' E 029°34'4 8.2
2017-Sep-11 13:00N 45°10' E 029°28'5 9.3
2017-Sep-11 12:29N 45°11' E 029°22'5 9.3
2017-Sep-11 11:55N 45°11' E 029°14'4 9.1
2017-Sep-11 11:30N 45°11' E 029°09'  

Dump ship's entire track history